sensor_id;sensor_type;location;lat;lon;timestamp;temperature;humidity
46440;DHT22;32138;50.966;6.968;2023-02-15T00:00:49;5.80;96.30
46440;DHT22;32138;50.966;6.968;2023-02-15T00:01:50;5.80;96.20
46440;DHT22;32138;50.966;6.968;2023-02-15T00:02:52;5.70;96.40
46440;DHT22;32138;50.966;6.968;2023-02-15T00:03:53;5.70;96.40
46440;DHT22;32138;50.966;6.968;2023-02-15T00:04:53;5.60;96.40
46440;DHT22;32138;50.966;6.968;2023-02-15T00:05:57;5.70;96.50
46440;DHT22;32138;50.966;6.968;2023-02-15T00:06:57;5.70;96.60
46440;DHT22;32138;50.966;6.968;2023-02-15T00:07:58;5.90;96.10
46440;DHT22;32138;50.966;6.968;2023-02-15T00:08:59;6.00;95.90
46440;DHT22;32138;50.966;6.968;2023-02-15T00:10:00;6.20;95.60
46440;DHT22;32138;50.966;6.968;2023-02-15T00:11:08;5.80;95.60
46440;DHT22;32138;50.966;6.968;2023-02-15T00:12:12;5.80;96.10
46440;DHT22;32138;50.966;6.968;2023-02-15T00:13:12;6.00;96.00
46440;DHT22;32138;50.966;6.968;2023-02-15T00:15:16;5.70;95.90
46440;DHT22;32138;50.966;6.968;2023-02-15T00:16:17;5.70;96.10
46440;DHT22;32138;50.966;6.968;2023-02-15T00:17:18;5.70;96.00
46440;DHT22;32138;50.966;6.968;2023-02-15T00:18:19;5.80;96.30
46440;DHT22;32138;50.966;6.968;2023-02-15T00:19:21;5.70;96.20
46440;DHT22;32138;50.966;6.968;2023-02-15T00:20:22;5.70;96.40
46440;DHT22;32138;50.966;6.968;2023-02-15T00:21:22;5.60;96.40
46440;DHT22;32138;50.966;6.968;2023-02-15T00:22:23;5.50;96.70
46440;DHT22;32138;50.966;6.968;2023-02-15T00:23:26;5.30;96.70
46440;DHT22;32138;50.966;6.968;2023-02-15T00:24:26;5.50;96.90
46440;DHT22;32138;50.966;6.968;2023-02-15T00:25:27;5.50;96.60
46440;DHT22;32138;50.966;6.968;2023-02-15T00:26:28;5.50;96.80
46440;DHT22;32138;50.966;6.968;2023-02-15T00:27:29;5.40;96.70
46440;DHT22;32138;50.966;6.968;2023-02-15T00:28:30;5.70;96.80
46440;DHT22;32138;50.966;6.968;2023-02-15T00:29:31;5.40;96.50
46440;DHT22;32138;50.966;6.968;2023-02-15T00:30:32;5.30;97.10
46440;DHT22;32138;50.966;6.968;2023-02-15T00:31:33;5.30;97.10
46440;DHT22;32138;50.966;6.968;2023-02-15T00:32:34;5.50;97.00
46440;DHT22;32138;50.966;6.968;2023-02-15T00:33:36;5.50;96.90
46440;DHT22;32138;50.966;6.968;2023-02-15T00:34:37;5.30;97.00
46440;DHT22;32138;50.966;6.968;2023-02-15T00:35:38;5.40;97.00
46440;DHT22;32138;50.966;6.968;2023-02-15T00:36:39;5.60;96.60
46440;DHT22;32138;50.966;6.968;2023-02-15T00:37:39;5.60;96.50
46440;DHT22;32138;50.966;6.968;2023-02-15T00:38:40;5.50;96.60
46440;DHT22;32138;50.966;6.968;2023-02-15T00:39:41;5.50;96.60
46440;DHT22;32138;50.966;6.968;2023-02-15T00:40:41;5.50;96.80
46440;DHT22;32138;50.966;6.968;2023-02-15T00:41:42;5.50;96.80
46440;DHT22;32138;50.966;6.968;2023-02-15T00:42:43;5.30;96.70
46440;DHT22;32138;50.966;6.968;2023-02-15T00:43:44;5.30;96.90
46440;DHT22;32138;50.966;6.968;2023-02-15T00:44:45;5.40;97.10
46440;DHT22;32138;50.966;6.968;2023-02-15T00:45:46;5.40;96.90
46440;DHT22;32138;50.966;6.968;2023-02-15T00:46:47;5.40;97.30
46440;DHT22;32138;50.966;6.968;2023-02-15T00:47:48;5.40;96.90
46440;DHT22;32138;50.966;6.968;2023-02-15T00:48:48;5.50;96.90
46440;DHT22;32138;50.966;6.968;2023-02-15T00:49:49;5.60;96.90
46440;DHT22;32138;50.966;6.968;2023-02-15T00:50:54;5.70;96.60
46440;DHT22;32138;50.966;6.968;2023-02-15T00:51:58;5.60;96.30
46440;DHT22;32138;50.966;6.968;2023-02-15T00:52:59;5.50;96.60
46440;DHT22;32138;50.966;6.968;2023-02-15T00:54:00;5.50;96.70
46440;DHT22;32138;50.966;6.968;2023-02-15T00:55:00;5.40;97.30
46440;DHT22;32138;50.966;6.968;2023-02-15T00:56:01;5.40;97.00
46440;DHT22;32138;50.966;6.968;2023-02-15T00:57:02;5.30;97.10
46440;DHT22;32138;50.966;6.968;2023-02-15T00:58:03;5.40;97.00
46440;DHT22;32138;50.966;6.968;2023-02-15T00:59:03;5.40;97.10
46440;DHT22;32138;50.966;6.968;2023-02-15T01:00:05;5.20;97.10
46440;DHT22;32138;50.966;6.968;2023-02-15T01:01:11;5.40;97.30
46440;DHT22;32138;50.966;6.968;2023-02-15T01:02:13;5.60;96.80
46440;DHT22;32138;50.966;6.968;2023-02-15T01:03:16;5.40;96.60
46440;DHT22;32138;50.966;6.968;2023-02-15T01:04:18;5.50;96.70
46440;DHT22;32138;50.966;6.968;2023-02-15T01:05:18;5.60;96.70
46440;DHT22;32138;50.966;6.968;2023-02-15T01:06:19;5.20;96.90
46440;DHT22;32138;50.966;6.968;2023-02-15T01:07:20;5.10;97.10
46440;DHT22;32138;50.966;6.968;2023-02-15T01:08:21;5.30;97.30
46440;DHT22;32138;50.966;6.968;2023-02-15T01:09:22;5.40;97.10
46440;DHT22;32138;50.966;6.968;2023-02-15T01:10:22;5.20;97.10
46440;DHT22;32138;50.966;6.968;2023-02-15T01:11:23;5.40;97.20
46440;DHT22;32138;50.966;6.968;2023-02-15T01:12:24;5.40;96.80
46440;DHT22;32138;50.966;6.968;2023-02-15T01:13:25;5.20;97.20
46440;DHT22;32138;50.966;6.968;2023-02-15T01:14:26;5.20;97.10
46440;DHT22;32138;50.966;6.968;2023-02-15T01:15:27;4.90;97.40
46440;DHT22;32138;50.966;6.968;2023-02-15T01:16:28;5.10;97.80
46440;DHT22;32138;50.966;6.968;2023-02-15T01:17:31;5.20;97.30
46440;DHT22;32138;50.966;6.968;2023-02-15T01:18:32;5.10;97.30
46440;DHT22;32138;50.966;6.968;2023-02-15T01:19:34;5.10;97.40
46440;DHT22;32138;50.966;6.968;2023-02-15T01:20:36;5.30;97.20
46440;DHT22;32138;50.966;6.968;2023-02-15T01:21:39;5.40;97.20
46440;DHT22;32138;50.966;6.968;2023-02-15T01:22:40;5.40;96.90
46440;DHT22;32138;50.966;6.968;2023-02-15T01:23:42;5.40;96.60
46440;DHT22;32138;50.966;6.968;2023-02-15T01:24:42;5.50;96.90
46440;DHT22;32138;50.966;6.968;2023-02-15T01:25:44;5.70;96.60
46440;DHT22;32138;50.966;6.968;2023-02-15T01:26:45;5.50;96.60
46440;DHT22;32138;50.966;6.968;2023-02-15T01:27:46;5.50;96.50
46440;DHT22;32138;50.966;6.968;2023-02-15T01:28:47;5.50;96.60
46440;DHT22;32138;50.966;6.968;2023-02-15T01:29:47;5.60;96.40
46440;DHT22;32138;50.966;6.968;2023-02-15T01:30:48;5.40;96.50
46440;DHT22;32138;50.966;6.968;2023-02-15T01:31:51;5.20;97.30
46440;DHT22;32138;50.966;6.968;2023-02-15T01:32:52;5.30;97.10
46440;DHT22;32138;50.966;6.968;2023-02-15T01:33:53;5.20;97.20
46440;DHT22;32138;50.966;6.968;2023-02-15T01:34:53;5.20;97.20
46440;DHT22;32138;50.966;6.968;2023-02-15T01:35:58;5.30;97.30
46440;DHT22;32138;50.966;6.968;2023-02-15T01:36:59;5.50;96.80
46440;DHT22;32138;50.966;6.968;2023-02-15T01:38:00;5.40;96.60
46440;DHT22;32138;50.966;6.968;2023-02-15T01:39:00;5.40;96.90
46440;DHT22;32138;50.966;6.968;2023-02-15T01:40:04;5.30;96.80
46440;DHT22;32138;50.966;6.968;2023-02-15T01:41:08;5.10;97.20
46440;DHT22;32138;50.966;6.968;2023-02-15T01:42:25;5.30;97.20
46440;DHT22;32138;50.966;6.968;2023-02-15T01:43:43;5.20;97.20
46440;DHT22;32138;50.966;6.968;2023-02-15T01:44:50;5.60;96.90
46440;DHT22;32138;50.966;6.968;2023-02-15T01:46:00;5.70;96.40
46440;DHT22;32138;50.966;6.968;2023-02-15T01:47:01;5.80;96.20
46440;DHT22;32138;50.966;6.968;2023-02-15T01:48:06;5.50;96.10
46440;DHT22;32138;50.966;6.968;2023-02-15T01:49:23;5.50;96.50
46440;DHT22;32138;50.966;6.968;2023-02-15T01:50:44;5.60;96.30
46440;DHT22;32138;50.966;6.968;2023-02-15T01:51:48;5.40;96.40
46440;DHT22;32138;50.966;6.968;2023-02-15T01:55:33;5.10;97.10
46440;DHT22;32138;50.966;6.968;2023-02-15T01:56:38;5.00;97.30
46440;DHT22;32138;50.966;6.968;2023-02-15T01:57:40;5.00;97.60
46440;DHT22;32138;50.966;6.968;2023-02-15T01:58:42;5.20;97.40
46440;DHT22;32138;50.966;6.968;2023-02-15T01:59:48;5.00;97.20
46440;DHT22;32138;50.966;6.968;2023-02-15T02:00:54;5.10;97.20
46440;DHT22;32138;50.966;6.968;2023-02-15T02:01:59;5.10;97.40
46440;DHT22;32138;50.966;6.968;2023-02-15T02:03:01;5.00;97.40
46440;DHT22;32138;50.966;6.968;2023-02-15T02:05:16;5.00;97.40
46440;DHT22;32138;50.966;6.968;2023-02-15T02:06:18;5.20;97.60
46440;DHT22;32138;50.966;6.968;2023-02-15T02:07:21;5.40;97.10
46440;DHT22;32138;50.966;6.968;2023-02-15T02:08:24;5.40;96.70
46440;DHT22;32138;50.966;6.968;2023-02-15T02:09:25;5.10;97.10
46440;DHT22;32138;50.966;6.968;2023-02-15T02:10:27;5.10;97.30
46440;DHT22;32138;50.966;6.968;2023-02-15T02:11:28;5.20;97.00
46440;DHT22;32138;50.966;6.968;2023-02-15T02:12:29;5.20;97.30
46440;DHT22;32138;50.966;6.968;2023-02-15T02:13:30;5.20;97.10
46440;DHT22;32138;50.966;6.968;2023-02-15T02:14:31;5.10;97.20
46440;DHT22;32138;50.966;6.968;2023-02-15T02:15:53;4.80;97.50
46440;DHT22;32138;50.966;6.968;2023-02-15T02:17:20;4.70;98.10
46440;DHT22;32138;50.966;6.968;2023-02-15T02:37:23;4.90;97.40
46440;DHT22;32138;50.966;6.968;2023-02-15T02:38:50;4.90;97.90
46440;DHT22;32138;50.966;6.968;2023-02-15T02:43:04;5.20;97.40
46440;DHT22;32138;50.966;6.968;2023-02-15T02:44:42;5.20;97.20
46440;DHT22;32138;50.966;6.968;2023-02-15T02:46:10;4.80;97.70
46440;DHT22;32138;50.966;6.968;2023-02-15T02:47:22;4.70;98.00
46440;DHT22;32138;50.966;6.968;2023-02-15T02:48:30;4.80;98.00
46440;DHT22;32138;50.966;6.968;2023-02-15T02:49:35;4.70;98.00
46440;DHT22;32138;50.966;6.968;2023-02-15T02:50:41;4.80;98.00
46440;DHT22;32138;50.966;6.968;2023-02-15T02:51:42;5.00;98.00
46440;DHT22;32138;50.966;6.968;2023-02-15T02:52:45;5.00;97.60
46440;DHT22;32138;50.966;6.968;2023-02-15T02:53:51;4.90;97.60
46440;DHT22;32138;50.966;6.968;2023-02-15T02:54:55;4.60;97.90
46440;DHT22;32138;50.966;6.968;2023-02-15T02:57:19;4.70;98.20
46440;DHT22;32138;50.966;6.968;2023-02-15T02:58:31;4.60;98.60
46440;DHT22;32138;50.966;6.968;2023-02-15T02:59:39;4.60;98.30
46440;DHT22;32138;50.966;6.968;2023-02-15T03:00:47;4.60;98.20
46440;DHT22;32138;50.966;6.968;2023-02-15T03:02:13;4.30;98.50
46440;DHT22;32138;50.966;6.968;2023-02-15T03:04:44;4.70;98.50
46440;DHT22;32138;50.966;6.968;2023-02-15T03:05:48;4.40;98.40
46440;DHT22;32138;50.966;6.968;2023-02-15T03:07:06;4.50;98.70
46440;DHT22;32138;50.966;6.968;2023-02-15T03:08:09;4.60;98.70
46440;DHT22;32138;50.966;6.968;2023-02-15T03:09:13;4.30;98.60
46440;DHT22;32138;50.966;6.968;2023-02-15T03:10:18;4.50;98.90
46440;DHT22;32138;50.966;6.968;2023-02-15T03:11:22;4.80;98.30
46440;DHT22;32138;50.966;6.968;2023-02-15T03:12:29;4.80;98.00
46440;DHT22;32138;50.966;6.968;2023-02-15T03:13:33;5.00;97.90
46440;DHT22;32138;50.966;6.968;2023-02-15T03:14:35;5.10;97.80
46440;DHT22;32138;50.966;6.968;2023-02-15T03:15:41;4.90;97.40
46440;DHT22;32138;50.966;6.968;2023-02-15T03:17:04;4.70;97.80
46440;DHT22;32138;50.966;6.968;2023-02-15T03:18:06;4.70;97.80
46440;DHT22;32138;50.966;6.968;2023-02-15T03:19:14;4.60;98.10
46440;DHT22;32138;50.966;6.968;2023-02-15T03:20:22;4.60;98.20
46440;DHT22;32138;50.966;6.968;2023-02-15T03:23:03;4.80;98.00
46440;DHT22;32138;50.966;6.968;2023-02-15T03:24:21;4.60;97.50
46440;DHT22;32138;50.966;6.968;2023-02-15T03:25:42;4.80;97.80
46440;DHT22;32138;50.966;6.968;2023-02-15T03:26:47;4.50;98.10
46440;DHT22;32138;50.966;6.968;2023-02-15T03:27:58;4.50;98.50
46440;DHT22;32138;50.966;6.968;2023-02-15T03:29:02;4.60;98.50
46440;DHT22;32138;50.966;6.968;2023-02-15T03:30:05;4.70;98.30
46440;DHT22;32138;50.966;6.968;2023-02-15T03:31:08;4.80;98.00
46440;DHT22;32138;50.966;6.968;2023-02-15T03:32:11;5.00;97.80
46440;DHT22;32138;50.966;6.968;2023-02-15T03:33:14;4.80;97.30
46440;DHT22;32138;50.966;6.968;2023-02-15T03:34:17;4.90;97.60
46440;DHT22;32138;50.966;6.968;2023-02-15T03:35:22;4.70;97.80
46440;DHT22;32138;50.966;6.968;2023-02-15T03:36:32;4.60;97.80
46440;DHT22;32138;50.966;6.968;2023-02-15T03:38:00;4.50;98.00
46440;DHT22;32138;50.966;6.968;2023-02-15T03:40:32;4.70;97.90
46440;DHT22;32138;50.966;6.968;2023-02-15T03:43:04;4.70;98.10
46440;DHT22;32138;50.966;6.968;2023-02-15T03:44:14;4.60;98.30
46440;DHT22;32138;50.966;6.968;2023-02-15T03:45:24;4.90;97.80
46440;DHT22;32138;50.966;6.968;2023-02-15T03:46:46;5.00;97.60
46440;DHT22;32138;50.966;6.968;2023-02-15T03:47:50;4.80;97.40
46440;DHT22;32138;50.966;6.968;2023-02-15T03:49:11;4.60;97.70
46440;DHT22;32138;50.966;6.968;2023-02-15T03:50:21;4.30;98.20
46440;DHT22;32138;50.966;6.968;2023-02-15T03:51:46;4.30;98.50
46440;DHT22;32138;50.966;6.968;2023-02-15T03:52:48;4.40;98.50
46440;DHT22;32138;50.966;6.968;2023-02-15T03:53:50;4.30;98.30
46440;DHT22;32138;50.966;6.968;2023-02-15T03:54:52;4.50;98.40
46440;DHT22;32138;50.966;6.968;2023-02-15T03:55:54;4.30;98.40
46440;DHT22;32138;50.966;6.968;2023-02-15T03:56:57;4.20;98.70
46440;DHT22;32138;50.966;6.968;2023-02-15T03:58:18;4.40;98.70
46440;DHT22;32138;50.966;6.968;2023-02-15T03:59:37;4.50;98.70
46440;DHT22;32138;50.966;6.968;2023-02-15T04:01:04;4.60;98.40
46440;DHT22;32138;50.966;6.968;2023-02-15T04:04:05;4.20;98.60
46440;DHT22;32138;50.966;6.968;2023-02-15T04:05:08;4.00;98.80
46440;DHT22;32138;50.966;6.968;2023-02-15T04:06:09;4.20;99.00
46440;DHT22;32138;50.966;6.968;2023-02-15T04:07:10;4.50;98.90
46440;DHT22;32138;50.966;6.968;2023-02-15T04:08:12;4.60;98.20
46440;DHT22;32138;50.966;6.968;2023-02-15T04:09:13;4.40;98.20
46440;DHT22;32138;50.966;6.968;2023-02-15T04:10:32;4.50;98.50
46440;DHT22;32138;50.966;6.968;2023-02-15T04:11:51;4.20;98.40
46440;DHT22;32138;50.966;6.968;2023-02-15T04:12:52;4.50;98.60
46440;DHT22;32138;50.966;6.968;2023-02-15T04:13:53;4.60;98.20
46440;DHT22;32138;50.966;6.968;2023-02-15T04:14:56;4.60;97.90
46440;DHT22;32138;50.966;6.968;2023-02-15T04:16:15;4.70;98.20
46440;DHT22;32138;50.966;6.968;2023-02-15T04:17:16;4.30;98.30
46440;DHT22;32138;50.966;6.968;2023-02-15T04:18:17;4.30;98.40
46440;DHT22;32138;50.966;6.968;2023-02-15T04:19:18;4.50;98.50
46440;DHT22;32138;50.966;6.968;2023-02-15T04:20:37;4.60;98.00
46440;DHT22;32138;50.966;6.968;2023-02-15T04:21:56;4.40;98.30
46440;DHT22;32138;50.966;6.968;2023-02-15T04:23:15;4.60;98.30
46440;DHT22;32138;50.966;6.968;2023-02-15T04:24:35;4.50;98.10
46440;DHT22;32138;50.966;6.968;2023-02-15T04:25:54;4.40;98.40
46440;DHT22;32138;50.966;6.968;2023-02-15T04:26:54;4.20;98.50
46440;DHT22;32138;50.966;6.968;2023-02-15T04:27:58;4.10;98.80
46440;DHT22;32138;50.966;6.968;2023-02-15T04:28:59;4.00;98.90
46440;DHT22;32138;50.966;6.968;2023-02-15T04:29:59;4.10;99.20
46440;DHT22;32138;50.966;6.968;2023-02-15T04:31:00;4.20;98.90
46440;DHT22;32138;50.966;6.968;2023-02-15T04:32:01;4.20;98.90
46440;DHT22;32138;50.966;6.968;2023-02-15T04:33:02;4.00;98.70
46440;DHT22;32138;50.966;6.968;2023-02-15T04:34:03;4.00;99.40
46440;DHT22;32138;50.966;6.968;2023-02-15T04:35:05;4.20;99.10
46440;DHT22;32138;50.966;6.968;2023-02-15T04:36:06;4.30;98.80
46440;DHT22;32138;50.966;6.968;2023-02-15T04:37:07;4.30;98.70
46440;DHT22;32138;50.966;6.968;2023-02-15T04:38:07;4.30;98.70
46440;DHT22;32138;50.966;6.968;2023-02-15T04:39:09;4.30;98.70
46440;DHT22;32138;50.966;6.968;2023-02-15T04:40:13;4.30;98.30
46440;DHT22;32138;50.966;6.968;2023-02-15T04:41:15;4.20;98.70
46440;DHT22;32138;50.966;6.968;2023-02-15T04:42:15;4.20;98.70
46440;DHT22;32138;50.966;6.968;2023-02-15T04:43:16;4.10;98.80
46440;DHT22;32138;50.966;6.968;2023-02-15T04:44:17;4.10;98.60
46440;DHT22;32138;50.966;6.968;2023-02-15T04:45:18;4.40;98.70
46440;DHT22;32138;50.966;6.968;2023-02-15T04:46:18;4.40;98.10
46440;DHT22;32138;50.966;6.968;2023-02-15T04:47:19;4.20;98.50
46440;DHT22;32138;50.966;6.968;2023-02-15T04:48:20;4.00;98.80
46440;DHT22;32138;50.966;6.968;2023-02-15T04:49:21;4.20;98.90
46440;DHT22;32138;50.966;6.968;2023-02-15T04:50:22;4.30;98.60
46440;DHT22;32138;50.966;6.968;2023-02-15T04:51:22;4.30;98.70
46440;DHT22;32138;50.966;6.968;2023-02-15T04:52:24;4.30;98.50
46440;DHT22;32138;50.966;6.968;2023-02-15T04:53:25;4.30;98.30
46440;DHT22;32138;50.966;6.968;2023-02-15T04:54:25;4.40;98.60
46440;DHT22;32138;50.966;6.968;2023-02-15T04:55:26;4.30;97.90
46440;DHT22;32138;50.966;6.968;2023-02-15T04:56:27;4.30;98.20
46440;DHT22;32138;50.966;6.968;2023-02-15T04:57:30;4.40;98.00
46440;DHT22;32138;50.966;6.968;2023-02-15T04:58:30;4.10;98.20
46440;DHT22;32138;50.966;6.968;2023-02-15T04:59:31;4.00;98.50
46440;DHT22;32138;50.966;6.968;2023-02-15T05:00:32;4.00;98.70
46440;DHT22;32138;50.966;6.968;2023-02-15T05:01:33;4.10;98.80
46440;DHT22;32138;50.966;6.968;2023-02-15T05:02:34;3.90;98.50
46440;DHT22;32138;50.966;6.968;2023-02-15T05:03:35;3.90;98.90
46440;DHT22;32138;50.966;6.968;2023-02-15T05:04:36;4.10;98.90
46440;DHT22;32138;50.966;6.968;2023-02-15T05:05:36;4.00;98.90
46440;DHT22;32138;50.966;6.968;2023-02-15T05:06:37;4.10;98.80
46440;DHT22;32138;50.966;6.968;2023-02-15T05:07:38;4.30;98.70
46440;DHT22;32138;50.966;6.968;2023-02-15T05:08:39;4.30;98.20
46440;DHT22;32138;50.966;6.968;2023-02-15T05:09:39;4.00;98.40
46440;DHT22;32138;50.966;6.968;2023-02-15T05:10:40;4.00;98.70
46440;DHT22;32138;50.966;6.968;2023-02-15T05:11:41;3.70;98.70
46440;DHT22;32138;50.966;6.968;2023-02-15T05:12:42;3.80;99.20
46440;DHT22;32138;50.966;6.968;2023-02-15T05:13:43;3.60;99.30
46440;DHT22;32138;50.966;6.968;2023-02-15T05:14:43;3.80;99.50
46440;DHT22;32138;50.966;6.968;2023-02-15T05:15:51;4.00;99.10
46440;DHT22;32138;50.966;6.968;2023-02-15T05:16:52;4.10;98.60
46440;DHT22;32138;50.966;6.968;2023-02-15T05:17:54;3.80;98.90
46440;DHT22;32138;50.966;6.968;2023-02-15T05:18:54;3.70;99.20
46440;DHT22;32138;50.966;6.968;2023-02-15T05:19:55;3.70;99.40
46440;DHT22;32138;50.966;6.968;2023-02-15T05:20:56;3.60;99.30
46440;DHT22;32138;50.966;6.968;2023-02-15T05:21:57;3.70;99.50
46440;DHT22;32138;50.966;6.968;2023-02-15T05:22:57;3.90;99.60
46440;DHT22;32138;50.966;6.968;2023-02-15T05:23:58;4.00;99.00
46440;DHT22;32138;50.966;6.968;2023-02-15T05:24:59;3.80;99.00
46440;DHT22;32138;50.966;6.968;2023-02-15T05:26:21;3.70;99.30
46440;DHT22;32138;50.966;6.968;2023-02-15T05:27:41;3.50;99.50
46440;DHT22;32138;50.966;6.968;2023-02-15T05:29:00;3.40;99.70
46440;DHT22;32138;50.966;6.968;2023-02-15T05:30:01;3.90;99.60
46440;DHT22;32138;50.966;6.968;2023-02-15T05:32:03;4.00;98.90
46440;DHT22;32138;50.966;6.968;2023-02-15T05:33:04;4.10;98.60
46440;DHT22;32138;50.966;6.968;2023-02-15T05:34:05;4.20;98.40
46440;DHT22;32138;50.966;6.968;2023-02-15T05:35:06;4.00;98.60
46440;DHT22;32138;50.966;6.968;2023-02-15T05:36:08;4.20;98.60
46440;DHT22;32138;50.966;6.968;2023-02-15T05:37:09;4.20;98.30
46440;DHT22;32138;50.966;6.968;2023-02-15T05:38:10;4.20;98.10
46440;DHT22;32138;50.966;6.968;2023-02-15T05:39:10;4.20;98.20
46440;DHT22;32138;50.966;6.968;2023-02-15T05:40:11;4.10;98.10
46440;DHT22;32138;50.966;6.968;2023-02-15T05:41:12;4.00;98.70
46440;DHT22;32138;50.966;6.968;2023-02-15T05:42:13;3.90;98.40
46440;DHT22;32138;50.966;6.968;2023-02-15T05:43:13;3.90;98.90
46440;DHT22;32138;50.966;6.968;2023-02-15T05:44:14;4.20;98.50
46440;DHT22;32138;50.966;6.968;2023-02-15T05:45:15;4.30;98.00
46440;DHT22;32138;50.966;6.968;2023-02-15T05:46:16;4.20;98.00
46440;DHT22;32138;50.966;6.968;2023-02-15T05:47:16;4.30;97.90
46440;DHT22;32138;50.966;6.968;2023-02-15T05:48:19;4.30;97.80
46440;DHT22;32138;50.966;6.968;2023-02-15T05:49:21;4.10;98.10
46440;DHT22;32138;50.966;6.968;2023-02-15T05:50:22;4.00;98.30
46440;DHT22;32138;50.966;6.968;2023-02-15T05:51:22;3.90;98.80
46440;DHT22;32138;50.966;6.968;2023-02-15T05:52:23;4.00;98.70
46440;DHT22;32138;50.966;6.968;2023-02-15T05:53:24;4.00;98.40
46440;DHT22;32138;50.966;6.968;2023-02-15T05:54:25;4.10;98.20
46440;DHT22;32138;50.966;6.968;2023-02-15T05:55:26;3.90;98.20
46440;DHT22;32138;50.966;6.968;2023-02-15T05:56:27;3.80;98.70
46440;DHT22;32138;50.966;6.968;2023-02-15T05:57:28;3.60;99.00
46440;DHT22;32138;50.966;6.968;2023-02-15T05:58:31;3.60;99.30
46440;DHT22;32138;50.966;6.968;2023-02-15T05:59:33;3.80;98.90
46440;DHT22;32138;50.966;6.968;2023-02-15T06:00:34;4.10;98.70
46440;DHT22;32138;50.966;6.968;2023-02-15T06:01:35;4.30;98.00
46440;DHT22;32138;50.966;6.968;2023-02-15T06:02:36;4.10;98.50
46440;DHT22;32138;50.966;6.968;2023-02-15T06:03:38;3.80;98.00
46440;DHT22;32138;50.966;6.968;2023-02-15T06:04:39;3.80;98.80
46440;DHT22;32138;50.966;6.968;2023-02-15T06:05:39;3.90;98.60
46440;DHT22;32138;50.966;6.968;2023-02-15T06:06:40;3.70;98.50
46440;DHT22;32138;50.966;6.968;2023-02-15T06:07:43;3.90;98.80
46440;DHT22;32138;50.966;6.968;2023-02-15T06:08:45;3.60;98.90
46440;DHT22;32138;50.966;6.968;2023-02-15T06:09:45;3.50;99.00
46440;DHT22;32138;50.966;6.968;2023-02-15T06:10:46;3.30;99.40
46440;DHT22;32138;50.966;6.968;2023-02-15T06:11:47;3.50;99.60
46440;DHT22;32138;50.966;6.968;2023-02-15T06:12:48;3.70;99.60
46440;DHT22;32138;50.966;6.968;2023-02-15T06:13:48;4.00;99.90
46440;DHT22;32138;50.966;6.968;2023-02-15T06:14:49;4.00;99.00
46440;DHT22;32138;50.966;6.968;2023-02-15T06:15:50;4.20;98.50
46440;DHT22;32138;50.966;6.968;2023-02-15T06:16:51;4.00;98.40
46440;DHT22;32138;50.966;6.968;2023-02-15T06:17:52;3.90;98.60
46440;DHT22;32138;50.966;6.968;2023-02-15T06:18:52;3.60;98.70
46440;DHT22;32138;50.966;6.968;2023-02-15T06:19:53;3.60;99.30
46440;DHT22;32138;50.966;6.968;2023-02-15T06:20:54;3.60;99.00
46440;DHT22;32138;50.966;6.968;2023-02-15T06:21:54;3.30;99.50
46440;DHT22;32138;50.966;6.968;2023-02-15T06:22:55;3.40;99.60
46440;DHT22;32138;50.966;6.968;2023-02-15T06:23:56;3.50;99.50
46440;DHT22;32138;50.966;6.968;2023-02-15T06:24:57;3.30;99.70
46440;DHT22;32138;50.966;6.968;2023-02-15T06:25:57;3.40;99.70
46440;DHT22;32138;50.966;6.968;2023-02-15T06:26:58;3.50;99.90
46440;DHT22;32138;50.966;6.968;2023-02-15T06:27:59;3.60;99.50
46440;DHT22;32138;50.966;6.968;2023-02-15T06:29:00;3.50;99.40
46440;DHT22;32138;50.966;6.968;2023-02-15T06:30:00;3.40;99.60
46440;DHT22;32138;50.966;6.968;2023-02-15T06:31:01;3.50;99.40
46440;DHT22;32138;50.966;6.968;2023-02-15T06:32:02;3.50;99.60
46440;DHT22;32138;50.966;6.968;2023-02-15T06:33:03;3.60;99.50
46440;DHT22;32138;50.966;6.968;2023-02-15T06:34:04;3.50;99.40
46440;DHT22;32138;50.966;6.968;2023-02-15T06:35:05;3.50;99.40
46440;DHT22;32138;50.966;6.968;2023-02-15T06:36:06;3.60;99.50
46440;DHT22;32138;50.966;6.968;2023-02-15T06:37:07;3.80;99.30
46440;DHT22;32138;50.966;6.968;2023-02-15T06:38:08;3.90;99.00
46440;DHT22;32138;50.966;6.968;2023-02-15T06:39:09;4.00;98.70
46440;DHT22;32138;50.966;6.968;2023-02-15T06:40:10;3.90;98.40
46440;DHT22;32138;50.966;6.968;2023-02-15T06:41:11;3.70;98.70
46440;DHT22;32138;50.966;6.968;2023-02-15T06:42:11;3.70;99.00
46440;DHT22;32138;50.966;6.968;2023-02-15T06:43:13;3.60;99.10
46440;DHT22;32138;50.966;6.968;2023-02-15T06:44:13;3.70;98.70
46440;DHT22;32138;50.966;6.968;2023-02-15T06:45:14;3.70;99.00
46440;DHT22;32138;50.966;6.968;2023-02-15T06:46:15;3.60;98.90
46440;DHT22;32138;50.966;6.968;2023-02-15T06:47:16;3.70;99.00
46440;DHT22;32138;50.966;6.968;2023-02-15T06:48:17;3.60;99.00
46440;DHT22;32138;50.966;6.968;2023-02-15T06:49:17;3.50;99.20
46440;DHT22;32138;50.966;6.968;2023-02-15T06:50:18;3.60;99.30
46440;DHT22;32138;50.966;6.968;2023-02-15T06:51:19;3.50;99.20
46440;DHT22;32138;50.966;6.968;2023-02-15T06:52:20;3.20;99.40
46440;DHT22;32138;50.966;6.968;2023-02-15T06:53:20;3.50;99.60
46440;DHT22;32138;50.966;6.968;2023-02-15T06:54:21;3.50;99.20
46440;DHT22;32138;50.966;6.968;2023-02-15T06:55:22;3.50;99.40
46440;DHT22;32138;50.966;6.968;2023-02-15T06:56:23;3.70;99.40
46440;DHT22;32138;50.966;6.968;2023-02-15T06:57:23;3.70;99.20
46440;DHT22;32138;50.966;6.968;2023-02-15T06:58:24;3.80;98.60
46440;DHT22;32138;50.966;6.968;2023-02-15T06:59:25;3.80;98.50
46440;DHT22;32138;50.966;6.968;2023-02-15T07:00:26;4.10;98.50
46440;DHT22;32138;50.966;6.968;2023-02-15T07:01:26;4.30;99.00
46440;DHT22;32138;50.966;6.968;2023-02-15T07:02:27;4.30;99.30
46440;DHT22;32138;50.966;6.968;2023-02-15T07:03:29;4.20;98.50
46440;DHT22;32138;50.966;6.968;2023-02-15T07:04:30;3.90;98.30
46440;DHT22;32138;50.966;6.968;2023-02-15T07:05:33;3.90;98.40
46440;DHT22;32138;50.966;6.968;2023-02-15T07:06:34;3.80;99.00
46440;DHT22;32138;50.966;6.968;2023-02-15T07:07:35;3.70;98.60
46440;DHT22;32138;50.966;6.968;2023-02-15T07:08:37;3.80;98.70
46440;DHT22;32138;50.966;6.968;2023-02-15T07:09:39;3.60;99.00
46440;DHT22;32138;50.966;6.968;2023-02-15T07:10:43;3.70;99.30
46440;DHT22;32138;50.966;6.968;2023-02-15T07:11:44;3.90;98.60
46440;DHT22;32138;50.966;6.968;2023-02-15T07:13:03;3.70;98.50
46440;DHT22;32138;50.966;6.968;2023-02-15T07:14:04;3.80;98.80
46440;DHT22;32138;50.966;6.968;2023-02-15T07:15:05;3.90;98.50
46440;DHT22;32138;50.966;6.968;2023-02-15T07:16:08;3.60;98.50
46440;DHT22;32138;50.966;6.968;2023-02-15T07:17:10;3.70;98.90
46440;DHT22;32138;50.966;6.968;2023-02-15T07:18:11;4.00;98.70
46440;DHT22;32138;50.966;6.968;2023-02-15T07:19:11;3.90;98.30
46440;DHT22;32138;50.966;6.968;2023-02-15T07:20:18;3.90;98.20
46440;DHT22;32138;50.966;6.968;2023-02-15T07:21:20;3.90;98.60
46440;DHT22;32138;50.966;6.968;2023-02-15T07:22:21;3.60;98.50
46440;DHT22;32138;50.966;6.968;2023-02-15T07:23:22;3.50;98.90
46440;DHT22;32138;50.966;6.968;2023-02-15T07:24:23;3.50;99.10
46440;DHT22;32138;50.966;6.968;2023-02-15T07:25:23;3.80;99.10